createdAt,value
2023-06-24T03:02:34.806Z,10.90
2023-06-24T03:05:10.802Z,9.30
2023-06-24T03:07:40.953Z,9.70
2023-06-24T03:10:12.738Z,10.40
2023-06-24T03:12:43.959Z,10.70
2023-06-24T03:15:16.034Z,11.10
2023-06-24T03:17:49.674Z,10.10
2023-06-24T03:20:59.059Z,9.10
2023-06-24T03:24:03.871Z,8.30
2023-06-24T03:27:33.030Z,10.30
2023-06-24T03:31:02.922Z,8.50
2023-06-24T03:33:33.519Z,8.90
2023-06-24T03:36:09.250Z,9.60
2023-06-24T03:38:38.671Z,8.20
2023-06-24T03:41:32.868Z,8.70
2023-06-24T03:44:03.324Z,8.30
2023-06-24T03:46:35.034Z,8.70
2023-06-24T03:49:10.265Z,8.70
2023-06-24T03:51:41.229Z,8.00
2023-06-24T03:54:13.539Z,7.80
2023-06-24T03:56:45.872Z,7.70
2023-06-24T03:59:15.755Z,7.00
2023-06-24T04:01:45.415Z,8.20
2023-06-24T04:04:15.813Z,9.30
2023-06-24T04:06:46.309Z,8.90
2023-06-24T04:09:17.393Z,7.30
2023-06-24T04:11:47.789Z,8.40
2023-06-24T04:14:17.512Z,8.60
2023-06-24T04:16:46.725Z,9.00
2023-06-24T04:19:16.328Z,8.60
2023-06-24T04:21:46.600Z,9.70
2023-06-24T04:24:16.567Z,9.70
2023-06-24T04:26:48.028Z,9.30
2023-06-24T04:29:17.049Z,10.10
2023-06-24T04:31:48.608Z,10.60
2023-06-24T04:34:19.916Z,10.30
2023-06-24T04:36:50.593Z,9.90
2023-06-24T04:39:20.048Z,10.40
2023-06-24T04:41:51.474Z,9.00
2023-06-24T04:44:22.921Z,8.80
2023-06-24T04:46:54.428Z,8.00
2023-06-24T04:49:28.924Z,9.70
2023-06-24T04:54:28.540Z,9.60
2023-06-24T04:57:00.065Z,10.30
2023-06-24T04:59:31.356Z,10.70
2023-06-24T05:02:02.765Z,8.70
2023-06-24T05:04:46.587Z,9.20
2023-06-24T05:07:52.528Z,9.70
2023-06-24T05:10:55.175Z,10.20
2023-06-24T05:13:46.072Z,10.60
2023-06-24T05:16:41.181Z,10.20
2023-06-24T05:19:32.074Z,9.60
2023-06-24T05:23:00.581Z,8.60
2023-06-24T05:25:30.283Z,8.30
2023-06-24T05:28:01.868Z,8.20
2023-06-24T05:30:31.130Z,7.30
2023-06-24T05:33:00.114Z,8.20
2023-06-24T05:35:29.759Z,8.10
2023-06-24T05:37:59.144Z,7.50
2023-06-24T05:40:28.400Z,7.20
2023-06-24T05:43:01.268Z,8.50
2023-06-24T05:52:32.100Z,8.20
2023-06-24T05:55:20.023Z,7.80
2023-06-24T05:57:52.991Z,7.20
2023-06-24T06:00:31.266Z,8.00
2023-06-24T06:03:00.954Z,7.80
2023-06-24T06:05:48.184Z,8.50
2023-06-24T06:09:35.449Z,7.70
2023-06-24T06:12:58.361Z,7.90
2023-06-24T06:16:55.178Z,7.60
2023-06-24T06:20:06.147Z,7.00
2023-06-24T06:22:55.867Z,7.10
2023-06-24T06:25:29.257Z,7.40
2023-06-24T06:28:04.073Z,7.80
2023-06-24T06:30:34.411Z,7.20
2023-06-24T06:33:04.352Z,7.90
2023-06-24T06:35:33.264Z,7.00
2023-06-24T06:38:38.226Z,7.20
2023-06-24T06:41:27.892Z,6.70
2023-06-24T06:44:19.271Z,6.90
2023-06-24T06:47:24.788Z,6.90
2023-06-24T06:49:57.320Z,7.00
2023-06-24T06:52:27.403Z,7.40
2023-06-24T06:54:56.615Z,8.60
2023-06-24T06:57:28.593Z,7.20
2023-06-24T06:59:58.731Z,6.50
2023-06-24T07:02:29.245Z,6.50
2023-06-24T07:05:03.739Z,6.90
2023-06-24T07:07:37.944Z,7.40
2023-06-24T07:10:07.912Z,6.60
2023-06-24T07:12:36.758Z,7.10
2023-06-24T07:15:07.594Z,6.50
2023-06-24T07:17:36.773Z,7.80
2023-06-24T07:20:06.784Z,6.80
2023-06-24T07:22:36.207Z,6.20
2023-06-24T07:25:06.087Z,6.70
2023-06-24T07:27:35.327Z,5.70
2023-06-24T07:30:10.424Z,5.70
2023-06-24T07:32:40.627Z,6.40
2023-06-24T07:35:09.961Z,6.70
2023-06-24T07:37:40.546Z,6.70
2023-06-24T07:40:10.493Z,6.30
2023-06-24T07:42:40.088Z,5.60
2023-06-24T07:45:10.172Z,5.90
2023-06-24T07:47:40.036Z,6.20
2023-06-24T07:50:12.585Z,6.00
2023-06-24T07:52:42.676Z,5.80
2023-06-24T07:55:12.588Z,5.30
2023-06-24T07:57:44.263Z,6.00
2023-06-24T08:00:14.822Z,6.00
2023-06-24T08:02:46.378Z,6.20
2023-06-24T08:05:16.388Z,6.20
2023-06-24T08:07:49.160Z,6.20
2023-06-24T08:10:22.326Z,5.90
2023-06-24T08:12:51.906Z,6.30
2023-06-24T08:15:21.242Z,5.90
2023-06-24T08:17:57.067Z,6.30
2023-06-24T08:20:26.850Z,5.80
2023-06-24T08:22:56.484Z,5.60
2023-06-24T08:25:27.112Z,5.20
2023-06-24T08:27:58.539Z,6.30
2023-06-24T08:30:29.520Z,5.60
2023-06-24T08:33:29.635Z,5.70
2023-06-24T08:36:53.340Z,6.60
2023-06-24T08:39:47.010Z,5.60
2023-06-24T08:45:49.300Z,6.20
2023-06-24T08:49:06.851Z,5.40
2023-06-24T08:52:42.442Z,5.30
2023-06-24T08:55:57.699Z,4.70
2023-06-24T08:59:22.064Z,6.50
2023-06-24T09:02:15.861Z,5.80
2023-06-24T09:04:45.177Z,6.10
2023-06-24T09:07:27.893Z,6.50
2023-06-24T09:10:39.420Z,6.10
2023-06-24T09:13:17.501Z,6.10
2023-06-24T09:15:47.767Z,5.70
2023-06-24T09:18:39.605Z,6.60
2023-06-24T09:21:27.215Z,5.70
2023-06-24T09:24:02.254Z,6.90
2023-06-24T09:26:54.460Z,6.40
2023-06-24T09:29:36.711Z,6.00
2023-06-24T09:32:08.175Z,6.10
2023-06-24T09:34:44.280Z,6.20
2023-06-24T09:37:36.552Z,5.70
2023-06-24T09:40:29.401Z,5.70
2023-06-24T09:45:33.077Z,5.20
2023-06-24T09:48:14.931Z,5.70
2023-06-24T09:50:45.534Z,5.20
2023-06-24T09:53:29.875Z,5.80
2023-06-24T09:56:11.825Z,5.60
2023-06-24T09:58:51.582Z,6.00
2023-06-24T10:01:27.667Z,5.90
2023-06-24T10:04:02.505Z,5.80
2023-06-24T10:07:07.371Z,6.00
2023-06-24T10:09:40.631Z,6.10
2023-06-24T10:12:14.915Z,6.50
2023-06-24T10:14:54.651Z,6.70
2023-06-24T10:17:29.239Z,5.90
2023-06-24T10:19:59.331Z,6.20
2023-06-24T10:22:34.830Z,6.20
2023-06-24T10:25:14.227Z,6.00
2023-06-24T10:27:57.906Z,6.10
2023-06-24T10:30:50.372Z,6.50
2023-06-24T10:33:44.842Z,6.00
2023-06-24T10:36:35.734Z,5.10
2023-06-24T10:39:51.205Z,5.30
2023-06-24T10:42:33.508Z,5.20
2023-06-24T10:45:16.285Z,5.60
2023-06-24T10:47:50.931Z,5.00
2023-06-24T10:50:26.764Z,5.80
2023-06-24T10:53:01.238Z,5.00
2023-06-24T10:55:30.791Z,5.60
2023-06-24T10:58:12.842Z,4.90
2023-06-24T11:00:48.463Z,5.50
2023-06-24T11:03:20.587Z,4.90
2023-06-24T11:05:51.551Z,4.90
2023-06-24T11:08:22.563Z,5.40
2023-06-24T11:11:07.981Z,6.20
2023-06-24T11:13:42.737Z,6.10
2023-06-24T11:16:24.889Z,4.90
2023-06-24T11:19:18.396Z,5.70
2023-06-24T11:22:06.973Z,5.40
2023-06-24T11:24:51.411Z,5.30
2023-06-24T11:27:33.103Z,5.70
2023-06-24T11:30:08.834Z,4.60
2023-06-24T11:33:03.326Z,4.70
2023-06-24T11:35:38.257Z,5.00
2023-06-24T11:38:16.850Z,4.80
2023-06-24T11:40:59.661Z,4.00
2023-06-24T11:43:45.752Z,4.70
2023-06-24T11:46:37.134Z,4.30
2023-06-24T11:49:11.443Z,3.80
2023-06-24T11:51:57.007Z,3.90
2023-06-24T11:54:44.179Z,3.80
2023-06-24T11:57:16.340Z,4.20
2023-06-24T11:59:45.503Z,3.70
2023-06-24T12:02:15.683Z,3.60
2023-06-24T12:04:46.142Z,4.20
2023-06-24T12:07:15.958Z,3.90
2023-06-24T12:09:45.864Z,4.10
2023-06-24T12:12:15.104Z,4.40
2023-06-24T12:14:45.686Z,3.90
2023-06-24T12:19:55.738Z,3.80
2023-06-24T12:22:26.143Z,3.70
2023-06-24T12:24:56.817Z,4.10
2023-06-24T12:27:30.866Z,4.30
2023-06-24T12:30:15.351Z,4.10
2023-06-24T12:35:51.981Z,4.10
2023-06-24T12:38:57.301Z,4.70
2023-06-24T12:41:43.916Z,4.20
2023-06-24T12:44:32.517Z,3.80
2023-06-24T12:47:06.514Z,4.30
2023-06-24T12:49:38.326Z,4.00
2023-06-24T12:52:09.602Z,4.70
2023-06-24T12:54:39.268Z,3.60
2023-06-24T12:57:13.945Z,3.80
2023-06-24T12:59:44.031Z,4.00
2023-06-24T13:02:13.665Z,3.70
2023-06-24T13:04:43.224Z,3.80
2023-06-24T13:07:12.979Z,3.60
2023-06-24T13:09:44.329Z,3.90
2023-06-24T13:12:13.718Z,3.40
2023-06-24T13:14:43.438Z,3.60
2023-06-24T13:17:13.454Z,3.30
2023-06-24T13:19:45.501Z,3.50
2023-06-24T13:22:15.225Z,4.30
2023-06-24T13:24:45.984Z,3.90
2023-06-24T13:27:15.304Z,4.00
2023-06-24T13:29:45.130Z,3.80
2023-06-24T13:32:14.598Z,4.00
2023-06-24T13:34:45.149Z,3.60
2023-06-24T13:37:16.575Z,3.50
2023-06-24T13:39:46.347Z,3.60
2023-06-24T13:42:16.121Z,4.30
2023-06-24T13:44:46.073Z,3.70
2023-06-24T13:47:15.614Z,4.50
2023-06-24T13:49:45.303Z,3.90
2023-06-24T13:52:14.826Z,4.70
2023-06-24T13:54:45.150Z,3.80
2023-06-24T13:57:18.584Z,3.60
2023-06-24T13:59:48.174Z,3.40
2023-06-24T14:02:17.895Z,3.50
2023-06-24T14:04:48.290Z,3.90
2023-06-24T14:07:17.820Z,4.20
2023-06-24T14:09:49.339Z,3.60
2023-06-24T14:12:17.888Z,3.80
2023-06-24T14:14:46.484Z,4.20
2023-06-24T14:17:16.035Z,4.30
2023-06-24T14:19:47.704Z,3.80
2023-06-24T14:22:19.347Z,3.50
2023-06-24T14:24:48.348Z,3.00
2023-06-24T14:27:19.070Z,4.00
2023-06-24T14:29:50.086Z,3.40
2023-06-24T14:32:19.121Z,3.90
2023-06-24T14:34:48.450Z,3.80
2023-06-24T14:37:17.902Z,3.90
2023-06-24T14:39:46.710Z,3.50
2023-06-24T14:42:17.498Z,3.30
2023-06-24T14:44:46.179Z,4.40
2023-06-24T14:47:14.742Z,3.50
2023-06-24T14:49:45.562Z,4.30
2023-06-24T14:52:14.930Z,3.40
2023-06-24T14:54:43.477Z,3.80
2023-06-24T14:57:13.618Z,4.40
2023-06-24T14:59:42.235Z,3.50
2023-06-24T15:02:11.946Z,3.80
2023-06-24T15:04:45.315Z,3.90
2023-06-24T15:07:14.942Z,3.70
2023-06-24T15:09:45.020Z,4.30
2023-06-24T15:12:14.439Z,4.50
2023-06-24T15:14:46.741Z,4.10
2023-06-24T15:17:16.462Z,3.70
2023-06-24T15:19:45.362Z,3.90
2023-06-24T15:22:14.735Z,4.00
2023-06-24T15:24:46.570Z,4.00
2023-06-24T15:27:15.159Z,6.20
2023-06-24T15:29:43.626Z,4.90
2023-06-24T15:32:13.032Z,4.70
2023-06-24T15:34:42.278Z,3.80
2023-06-24T15:37:11.964Z,4.30
2023-06-24T15:39:44.039Z,4.00
2023-06-24T15:42:12.737Z,4.20
2023-06-24T15:44:42.141Z,4.20
2023-06-24T15:47:11.969Z,3.90
2023-06-24T15:49:41.365Z,4.00
2023-06-24T15:52:11.218Z,5.10
2023-06-24T15:54:42.717Z,3.80
2023-06-24T15:57:12.348Z,4.40
2023-06-24T15:59:42.082Z,4.20
2023-06-24T16:02:12.343Z,4.20
2023-06-24T16:04:42.119Z,4.50
2023-06-24T16:07:11.390Z,4.30
2023-06-24T16:09:40.724Z,4.60
2023-06-24T16:12:10.452Z,3.80
2023-06-24T16:14:40.105Z,5.50
2023-06-24T16:17:10.109Z,5.30
2023-06-24T16:19:39.970Z,4.50
2023-06-24T16:22:10.223Z,4.60
2023-06-24T16:24:39.789Z,5.00
2023-06-24T16:27:09.425Z,5.20
2023-06-24T16:29:39.504Z,4.30
2023-06-24T16:32:08.879Z,4.00
2023-06-24T16:34:38.199Z,3.90
2023-06-24T16:37:07.937Z,4.70
2023-06-24T16:39:37.113Z,4.00
2023-06-24T16:42:06.690Z,4.40
2023-06-24T16:44:38.925Z,3.70
2023-06-24T16:47:08.148Z,4.40
2023-06-24T16:49:37.823Z,4.50
2023-06-24T16:52:07.959Z,4.80
2023-06-24T16:54:37.765Z,4.40
2023-06-24T16:57:06.525Z,5.00
2023-06-24T16:59:35.861Z,4.20
2023-06-24T17:02:08.058Z,5.30
2023-06-24T17:04:37.802Z,3.70
2023-06-24T17:07:06.709Z,5.10
2023-06-24T17:09:35.947Z,4.50
2023-06-24T17:12:06.310Z,4.20
2023-06-24T17:14:43.204Z,4.60
2023-06-24T17:17:13.097Z,4.70
2023-06-24T17:19:42.712Z,4.70
2023-06-24T17:22:12.140Z,4.50
2023-06-24T17:24:42.953Z,4.60
2023-06-24T17:27:11.875Z,4.80
2023-06-24T17:29:41.809Z,4.90
2023-06-24T17:32:11.049Z,5.60
2023-06-24T17:34:40.780Z,5.20
2023-06-24T17:37:10.658Z,5.30
2023-06-24T17:39:39.727Z,5.30
2023-06-24T17:42:09.234Z,4.90
2023-06-24T17:44:39.745Z,5.80
2023-06-24T17:47:10.465Z,4.90
2023-06-24T17:49:40.342Z,4.90
2023-06-24T17:52:09.271Z,4.60
2023-06-24T17:54:38.736Z,5.50
2023-06-24T17:57:13.307Z,4.70
2023-06-24T17:59:49.819Z,4.60
2023-06-24T18:02:20.535Z,5.10
2023-06-24T18:04:50.508Z,5.20
2023-06-24T18:07:21.146Z,5.80
2023-06-24T18:09:53.797Z,5.40
2023-06-24T18:12:28.258Z,5.30
2023-06-24T18:14:57.709Z,5.30
2023-06-24T18:17:26.524Z,6.00
2023-06-24T18:19:55.742Z,6.40
2023-06-24T18:22:24.593Z,5.00
2023-06-24T18:24:55.315Z,6.20
2023-06-24T18:27:25.228Z,5.70
2023-06-24T18:29:54.786Z,5.40
2023-06-24T18:32:24.080Z,5.40
2023-06-24T18:34:57.939Z,5.40
2023-06-24T18:37:28.070Z,5.80
2023-06-24T18:39:57.479Z,6.00
2023-06-24T18:42:26.931Z,6.30
2023-06-24T18:44:56.552Z,6.40
2023-06-24T18:47:25.972Z,6.20
2023-06-24T18:52:40.240Z,6.00
2023-06-24T18:55:09.924Z,5.70
2023-06-24T18:57:39.838Z,6.80
2023-06-24T19:00:09.924Z,6.50
2023-06-24T19:02:40.072Z,6.10
2023-06-24T19:05:09.542Z,6.10
2023-06-24T19:07:39.617Z,5.20
2023-06-24T19:10:09.851Z,5.50
2023-06-24T19:12:39.834Z,5.80
2023-06-24T19:15:10.689Z,6.40
2023-06-24T19:17:40.381Z,6.70
2023-06-24T19:20:10.374Z,7.10
2023-06-24T19:22:39.660Z,6.10
2023-06-24T19:25:08.962Z,6.20
2023-06-24T19:27:38.102Z,5.50
2023-06-24T19:30:08.112Z,6.40
2023-06-24T19:32:37.050Z,6.50
2023-06-24T19:35:06.590Z,6.30
2023-06-24T19:37:35.867Z,5.90
2023-06-24T19:40:05.929Z,6.00
2023-06-24T19:42:35.541Z,6.00
2023-06-24T19:45:06.858Z,5.50
2023-06-24T19:47:39.543Z,6.10
2023-06-24T19:50:11.824Z,5.50
2023-06-24T19:52:41.540Z,5.40
2023-06-24T19:55:15.514Z,6.60
2023-06-24T19:57:50.076Z,5.30
2023-06-24T20:00:27.915Z,5.70
2023-06-24T20:03:04.199Z,5.30
2023-06-24T20:05:38.852Z,5.90
2023-06-24T20:08:11.798Z,5.90
2023-06-24T20:10:41.063Z,5.70
2023-06-24T20:13:12.538Z,5.60
2023-06-24T20:15:47.533Z,6.80
2023-06-24T20:18:26.291Z,6.60
2023-06-24T20:20:59.979Z,6.30
2023-06-24T20:23:34.982Z,6.40
2023-06-24T20:26:07.504Z,6.50
2023-06-24T20:28:41.741Z,5.30
2023-06-24T20:31:14.135Z,5.10
2023-06-24T20:34:07.676Z,5.80
2023-06-24T20:36:39.870Z,7.10
2023-06-24T20:39:13.922Z,7.00
2023-06-24T20:41:45.562Z,6.20
2023-06-24T20:44:18.517Z,6.00
2023-06-24T20:46:49.485Z,7.10
2023-06-24T20:49:19.350Z,7.80
2023-06-24T20:51:55.009Z,8.10
2023-06-24T20:54:26.469Z,7.30
2023-06-24T20:56:58.731Z,6.80
2023-06-24T20:59:29.984Z,10.30
2023-06-24T21:01:59.320Z,11.20
2023-06-24T21:04:28.051Z,9.00
2023-06-24T21:06:56.582Z,7.50
2023-06-24T21:09:25.607Z,7.60
2023-06-24T21:11:54.968Z,7.30
2023-06-24T21:14:23.508Z,7.10
2023-06-24T21:16:52.379Z,7.20
2023-06-24T21:19:21.452Z,7.40
2023-06-24T21:21:50.769Z,7.60
2023-06-24T21:24:20.573Z,6.70
2023-06-24T21:26:49.675Z,6.30
2023-06-24T21:29:19.443Z,5.90
2023-06-24T21:31:48.601Z,5.50
2023-06-24T21:34:18.597Z,6.30
2023-06-24T21:36:47.824Z,7.40
2023-06-24T21:39:17.255Z,6.30
2023-06-24T21:41:47.452Z,6.10
2023-06-24T21:44:17.009Z,6.60
2023-06-24T21:46:46.406Z,6.10
2023-06-24T21:49:16.994Z,7.20
2023-06-24T21:51:45.852Z,5.70
2023-06-24T21:54:15.179Z,6.10
2023-06-24T21:56:44.412Z,7.10
2023-06-24T21:59:14.636Z,6.50
2023-06-24T22:01:43.937Z,6.40
2023-06-24T22:04:13.329Z,5.90
2023-06-24T22:06:44.216Z,6.10
2023-06-24T22:09:13.505Z,6.40
2023-06-24T22:11:42.921Z,6.00
2023-06-24T22:14:12.078Z,6.20
2023-06-24T22:16:43.276Z,6.70
2023-06-24T22:19:11.898Z,6.70
2023-06-24T22:21:40.549Z,5.50
2023-06-24T22:24:09.259Z,6.60
2023-06-24T22:26:40.099Z,5.70
2023-06-24T22:29:09.920Z,5.50
2023-06-24T22:31:40.494Z,5.40
2023-06-24T22:34:10.520Z,5.10
2023-06-24T22:36:41.437Z,5.60
2023-06-24T22:39:11.180Z,6.10
2023-06-24T22:41:39.769Z,6.50
2023-06-24T22:44:09.348Z,5.50
2023-06-24T22:46:38.186Z,5.40
2023-06-24T22:49:07.580Z,6.00
2023-06-24T22:51:36.932Z,6.10
2023-06-24T22:54:05.649Z,6.10
2023-06-24T22:56:35.271Z,5.90
2023-06-24T22:59:04.714Z,4.60
2023-06-24T23:01:34.213Z,4.60
2023-06-24T23:04:03.150Z,5.60
2023-06-24T23:06:33.049Z,5.50
2023-06-24T23:09:01.850Z,5.10
2023-06-24T23:11:32.032Z,6.00
2023-06-24T23:14:02.915Z,5.50
2023-06-24T23:16:32.606Z,5.50
2023-06-24T23:19:01.259Z,5.40
2023-06-24T23:21:31.502Z,5.20
2023-06-24T23:24:04.173Z,5.70
2023-06-24T23:26:41.078Z,6.10
2023-06-24T23:29:14.473Z,5.90
2023-06-24T23:31:46.049Z,5.40
2023-06-24T23:34:17.402Z,5.40
2023-06-24T23:36:46.609Z,7.20
2023-06-24T23:39:15.630Z,6.70
2023-06-24T23:41:44.970Z,7.00
2023-06-24T23:44:14.489Z,7.50
2023-06-24T23:46:43.262Z,7.90
2023-06-24T23:49:12.316Z,7.90
2023-06-24T23:51:42.118Z,7.50
2023-06-24T23:54:10.749Z,8.60
2023-06-24T23:56:41.118Z,7.00
2023-06-24T23:59:10.415Z,6.50
